Time;durP1;ratioP1;P1;durP2;ratioP2;P2;SDS_P1;SDS_P2;PMS_P1;PMS_P2;Temp;Humidity;BMP_temperature;BMP_pressure;BME280_temperature;BME280_humidity;BME280_pressure;Samples;Min_cycle;Max_cycle;Signal;HPM_P1;HPM_P2
2022/05/24 00:00:35;;;;;;;10.48;4.40;;;;;;;;;;4836142;29;20433;-71
2022/05/24 00:03:05;;;;;;;8.70;4.70;;;;;;;;;;4836355;29;20054;-72
2022/05/24 00:05:36;;;;;;;6.90;3.80;;;;;;;;;;4836165;29;20061;-73
2022/05/24 00:08:07;;;;;;;;;;;;;;;;;;4837261;29;20060;-72
2022/05/24 00:10:38;;;;;;;;;;;;;;;;;;4836334;29;19928;-73
2022/05/24 00:13:08;;;;;;;7.75;4.03;;;;;;;;;;4820371;29;19928;-73
2022/05/24 00:15:38;;;;;;;7.70;4.18;;;;;;;;;;4835898;29;20573;-72
2022/05/24 00:18:12;;;;;;;6.68;3.80;;;;;;;;;;4835918;29;20041;-73
2022/05/24 00:20:46;;;;;;;8.25;4.30;;;;;;;;;;4836550;29;20776;-72
2022/05/24 00:23:17;;;;;;;9.43;4.47;;;;;;;;;;4836710;29;20057;-72
2022/05/24 00:25:52;;;;;;;9.63;5.05;;;;;;;;;;4836068;29;20056;-72
2022/05/24 00:28:26;;;;;;;10.55;5.07;;;;;;;;;;4835963;29;20573;-75
2022/05/24 00:30:57;;;;;;;11.27;5.18;;;;;;;;;;4819575;29;20050;-73
2022/05/24 00:33:27;;;;;;;13.70;4.63;;;;;;;;;;4835305;29;20053;-72
2022/05/24 00:35:57;;;;;;;12.03;4.50;;;;;;;;;;4836011;29;20051;-73
2022/05/24 00:38:33;;;;;;;5.88;3.63;;;;;;;;;;4834516;29;20423;-73
2022/05/24 00:41:27;;;;;;;7.65;4.20;;;;;;;;;;4835290;29;20058;-73
2022/05/24 00:44:04;;;;;;;6.43;3.38;;;;;;;;;;4836124;29;20530;-72
2022/05/24 00:46:52;;;;;;;7.05;4.22;;;;;;;;;;4836253;29;20062;-72
2022/05/24 00:49:28;;;;;;;8.90;4.65;;;;;;;;;;4834070;29;20057;-73
2022/05/24 00:52:11;;;;;;;6.15;4.25;;;;;;;;;;4819163;29;20483;-73
2022/05/24 00:54:44;;;;;;;11.75;3.90;;;;;;;;;;4836113;29;20054;-72
2022/05/24 00:57:36;;;;;;;6.07;3.50;;;;;;;;;;4834864;29;20057;-72
2022/05/24 01:00:15;;;;;;;8.13;4.28;;;;;;;;;;4800280;29;20061;-73
2022/05/24 01:02:46;;;;;;;15.00;4.57;;;;;;;;;;4835142;29;20518;-72
2022/05/24 01:05:20;;;;;;;12.93;3.95;;;;;;;;;;4834828;29;20050;-71
2022/05/24 01:07:51;;;;;;;8.73;4.10;;;;;;;;;;4835252;29;20050;-71
2022/05/24 01:10:33;;;;;;;5.47;3.72;;;;;;;;;;4835079;29;20061;-72
2022/05/24 01:13:14;;;;;;;10.70;4.43;;;;;;;;;;4818783;29;20737;-72
2022/05/24 01:15:45;;;;;;;7.28;4.10;;;;;;;;;;4835351;29;20061;-72
2022/05/24 01:18:15;;;;;;;11.37;3.93;;;;;;;;;;4835653;29;20045;-73
2022/05/24 01:20:56;;;;;;;7.30;3.90;;;;;;;;;;4833655;29;20054;-71
2022/05/24 01:24:00;;;;;;;12.00;4.40;;;;;;;;;;4835412;29;20065;-72
2022/05/24 01:26:42;;;;;;;9.70;4.28;;;;;;;;;;4835566;29;20087;-72
2022/05/24 01:29:13;;;;;;;7.03;4.03;;;;;;;;;;4835227;29;20054;-72
2022/05/24 01:37:22;;;;;;;8.40;4.40;;;;;;;;;;4834543;29;20046;-72
2022/05/24 01:39:56;;;;;;;11.18;4.53;;;;;;;;;;4835041;29;20064;-73
2022/05/24 01:42:27;;;;;;;8.63;4.07;;;;;;;;;;4835546;29;20057;-73
2022/05/24 01:45:18;;;;;;;7.50;4.15;;;;;;;;;;4835021;29;20524;-72
2022/05/24 01:48:03;;;;;;;6.28;4.47;;;;;;;;;;4835373;29;20050;-73
2022/05/24 01:50:36;;;;;;;7.45;4.38;;;;;;;;;;4835305;29;20058;-71
2022/05/24 01:53:20;;;;;;;6.57;4.50;;;;;;;;;;4834959;29;20053;-72
2022/05/24 01:55:53;;;;;;;20.45;5.10;;;;;;;;;;4835127;29;20399;-72
2022/05/24 01:58:26;;;;;;;11.63;4.70;;;;;;;;;;4835054;29;20471;-71
2022/05/24 02:01:10;;;;;;;13.70;5.43;;;;;;;;;;4835400;29;20601;-73
2022/05/24 02:03:41;;;;;;;10.63;4.85;;;;;;;;;;4834490;29;20065;-72
2022/05/24 02:06:38;;;;;;;13.30;5.07;;;;;;;;;;4835154;29;20058;-71
2022/05/24 02:09:10;;;;;;;6.28;4.50;;;;;;;;;;4835079;29;20066;-75
2022/05/24 02:11:40;;;;;;;10.82;4.82;;;;;;;;;;4838545;29;20437;-72
2022/05/24 02:14:13;;;;;;;10.77;5.45;;;;;;;;;;4838286;29;20061;-73
2022/05/24 02:17:02;;;;;;;9.40;5.05;;;;;;;;;;4838561;29;20065;-72
2022/05/24 02:19:36;;;;;;;6.20;4.45;;;;;;;;;;4838612;29;20057;-72
2022/05/24 02:22:13;;;;;;;9.65;4.78;;;;;;;;;;4838742;29;20060;-71
2022/05/24 02:24:43;;;;;;;7.82;4.60;;;;;;;;;;4838676;29;20042;-71
2022/05/24 02:27:14;;;;;;;7.78;4.80;;;;;;;;;;4837435;29;20414;-71
2022/05/24 02:29:44;;;;;;;6.45;5.38;;;;;;;;;;4838421;29;20050;-71
2022/05/24 02:32:16;;;;;;;8.60;4.88;;;;;;;;;;4822148;29;20065;-72
2022/05/24 02:34:46;;;;;;;11.75;5.00;;;;;;;;;;4838137;29;20534;-72
2022/05/24 02:37:17;;;;;;;13.35;4.85;;;;;;;;;;4838218;29;20054;-71
2022/05/24 02:42:35;;;;;;;9.85;6.18;;;;;;;;;;4820631;29;20058;-72
2022/05/24 02:45:06;;;;;;;10.30;5.18;;;;;;;;;;4838389;29;20046;-72
2022/05/24 02:47:36;;;;;;;9.40;5.73;;;;;;;;;;4837978;29;20057;-71
2022/05/24 02:50:09;;;;;;;9.07;5.10;;;;;;;;;;4837782;29;20380;-72
2022/05/24 02:52:42;;;;;;;8.07;4.47;;;;;;;;;;4838194;29;20447;-71
2022/05/24 02:55:13;;;;;;;12.40;5.45;;;;;;;;;;4838128;29;20061;-72
2022/05/24 02:57:44;;;;;;;6.57;5.15;;;;;;;;;;4836289;29;20069;-72
2022/05/24 03:00:21;;;;;;;13.65;6.10;;;;;;;;;;4838183;29;20061;-71
2022/05/24 03:02:52;;;;;;;10.13;6.60;;;;;;;;;;4838062;29;20125;-72
2022/05/24 03:05:24;;;;;;;10.13;6.72;;;;;;;;;;4838042;29;20411;-71
2022/05/24 03:10:43;;;;;;;9.23;6.82;;;;;;;;;;4837755;29;20058;-72
2022/05/24 03:16:11;;;;;;;8.88;5.95;;;;;;;;;;4837023;29;20046;-71
2022/05/24 03:18:42;;;;;;;8.00;5.88;;;;;;;;;;4838147;29;20053;-72
2022/05/24 03:21:14;;;;;;;12.27;6.50;;;;;;;;;;4836839;29;20054;-71
2022/05/24 03:23:44;;;;;;;13.15;7.05;;;;;;;;;;4837345;29;20061;-71
2022/05/24 03:26:14;;;;;;;16.90;7.28;;;;;;;;;;4837504;29;20414;-73
2022/05/24 03:28:49;;;;;;;9.02;6.32;;;;;;;;;;4836382;29;20062;-72
2022/05/24 03:31:22;;;;;;;9.90;5.63;;;;;;;;;;4836258;29;20057;-72
2022/05/24 03:33:52;;;;;;;9.02;6.32;;;;;;;;;;4837441;29;20069;-72
2022/05/24 03:36:22;;;;;;;10.75;6.53;;;;;;;;;;4837301;29;20470;-71
2022/05/24 03:38:52;;;;;;;11.50;6.70;;;;;;;;;;4837059;29;20050;-71
2022/05/24 03:41:22;;;;;;;8.18;6.25;;;;;;;;;;4836724;29;20057;-72
2022/05/24 03:43:52;;;;;;;12.55;6.60;;;;;;;;;;4836470;29;20057;-72
2022/05/24 03:46:22;;;;;;;10.98;6.25;;;;;;;;;;4836930;29;20046;-72
2022/05/24 03:48:52;;;;;;;8.50;6.38;;;;;;;;;;4836771;29;20521;-72
2022/05/24 03:51:22;;;;;;;10.45;5.43;;;;;;;;;;4820396;29;20050;-71
2022/05/24 03:53:52;;;;;;;9.88;6.20;;;;;;;;;;4836659;29;20049;-71
2022/05/24 03:56:25;;;;;;;16.38;6.57;;;;;;;;;;4835580;29;20061;-72
2022/05/24 03:58:55;;;;;;;12.13;6.85;;;;;;;;;;4836292;29;20069;-73
2022/05/24 04:01:25;;;;;;;13.05;7.63;;;;;;;;;;4835907;29;20069;-72
2022/05/24 04:03:57;;;;;;;14.38;6.78;;;;;;;;;;4834416;29;20069;-72
2022/05/24 04:06:28;;;;;;;12.68;6.88;;;;;;;;;;4836438;29;20612;-71
2022/05/24 04:08:58;;;;;;;12.45;7.30;;;;;;;;;;4834705;29;20066;-71
2022/05/24 04:11:29;;;;;;;12.90;7.63;;;;;;;;;;4836361;29;20064;-72
2022/05/24 04:13:58;;;;;;;16.30;7.28;;;;;;;;;;4836572;29;20049;-72
2022/05/24 04:16:29;;;;;;;14.48;6.63;;;;;;;;;;4835347;29;20065;-72
2022/05/24 04:18:58;;;;;;;9.60;7.05;;;;;;;;;;4835722;29;20054;-72
2022/05/24 04:21:28;;;;;;;8.32;6.22;;;;;;;;;;4835611;29;20066;-72
2022/05/24 04:23:58;;;;;;;9.98;6.40;;;;;;;;;;4835643;29;20084;-72
2022/05/24 04:26:28;;;;;;;12.07;6.85;;;;;;;;;;4835802;29;20054;-72
2022/05/24 04:28:58;;;;;;;7.65;6.38;;;;;;;;;;4836691;29;20061;-72
2022/05/24 04:31:28;;;;;;;11.15;6.50;;;;;;;;;;4835724;29;20049;-72
2022/05/24 04:33:58;;;;;;;10.30;5.50;;;;;;;;;;4835586;29;20175;-72
2022/05/24 04:36:28;;;;;;;12.68;6.35;;;;;;;;;;4835110;29;20065;-71
2022/05/24 04:38:59;;;;;;;6.93;5.72;;;;;;;;;;4836114;29;20038;-72
2022/05/24 04:44:17;;;;;;;9.80;5.68;;;;;;;;;;4835737;29;20046;-71
2022/05/24 04:49:40;;;;;;;9.93;5.47;;;;;;;;;;4835454;29;20049;-72
2022/05/24 04:52:14;;;;;;;12.95;5.55;;;;;;;;;;4833957;29;20062;-71
2022/05/24 04:54:45;;;;;;;9.68;5.78;;;;;;;;;;4819020;29;20054;-71
2022/05/24 04:57:16;;;;;;;10.20;5.30;;;;;;;;;;4818135;29;20054;-72
2022/05/24 04:59:47;;;;;;;5.78;4.25;;;;;;;;;;4836054;29;20066;-71
2022/05/24 05:02:20;;;;;;;11.68;5.07;;;;;;;;;;4835270;29;20541;-71
2022/05/24 05:04:52;;;;;;;7.75;4.72;;;;;;;;;;4835653;29;20054;-72
2022/05/24 05:07:22;;;;;;;6.97;4.72;;;;;;;;;;4819166;29;20053;-71
2022/05/24 05:09:54;;;;;;;6.78;4.85;;;;;;;;;;4833328;29;20058;-72
2022/05/24 05:12:26;;;;;;;10.40;5.25;;;;;;;;;;4835313;29;20061;-72
2022/05/24 05:14:56;;;;;;;9.63;5.20;;;;;;;;;;4835140;29;20054;-71
2022/05/24 05:17:27;;;;;;;6.00;5.40;;;;;;;;;;4835584;29;20049;-71
2022/05/24 05:19:59;;;;;;;4.95;4.47;;;;;;;;;;4835253;29;20057;-71
2022/05/24 05:22:30;;;;;;;9.70;4.20;;;;;;;;;;4835217;29;20049;-73
2022/05/24 05:25:00;;;;;;;9.35;4.50;;;;;;;;;;4835310;29;20061;-71
2022/05/24 05:27:30;;;;;;;5.93;4.30;;;;;;;;;;4835601;29;20065;-71
2022/05/24 05:32:50;;;;;;;5.35;4.68;;;;;;;;;;4834727;29;20053;-71
2022/05/24 05:35:21;;;;;;;10.73;5.95;;;;;;;;;;4835558;29;20054;-71
2022/05/24 05:37:50;;;;;;;8.13;5.30;;;;;;;;;;4835451;29;20524;-72
2022/05/24 05:40:20;;;;;;;9.38;6.18;;;;;;;;;;4834532;29;20525;-72
2022/05/24 05:42:50;;;;;;;7.70;4.65;;;;;;;;;;4818768;29;20065;-72
2022/05/24 05:45:21;;;;;;;11.30;5.63;;;;;;;;;;4837794;29;20053;-70
2022/05/24 05:47:53;;;;;;;8.88;5.35;;;;;;;;;;4839334;29;20410;-71
2022/05/24 05:50:25;;;;;;;8.15;5.18;;;;;;;;;;4837728;29;20062;-72
2022/05/24 05:52:56;;;;;;;11.77;5.00;;;;;;;;;;4822661;29;20046;-72
2022/05/24 05:55:26;;;;;;;7.75;5.20;;;;;;;;;;4837394;29;20510;-71
2022/05/24 05:57:56;;;;;;;13.40;5.47;;;;;;;;;;4837822;29;20396;-71
2022/05/24 06:00:26;;;;;;;5.93;4.43;;;;;;;;;;4838486;29;20514;-71
2022/05/24 06:02:56;;;;;;;8.27;5.13;;;;;;;;;;4837955;29;20050;-71
2022/05/24 06:05:28;;;;;;;9.77;5.38;;;;;;;;;;4837542;29;20054;-71
2022/05/24 06:07:59;;;;;;;9.10;5.28;;;;;;;;;;4838075;29;20056;-72
2022/05/24 06:10:30;;;;;;;6.13;4.85;;;;;;;;;;4838784;29;20529;-72
2022/05/24 06:13:02;;;;;;;8.43;4.93;;;;;;;;;;4838672;29;20054;-71
2022/05/24 06:15:33;;;;;;;6.20;4.90;;;;;;;;;;4838142;29;20282;-71
2022/05/24 06:18:03;;;;;;;8.05;4.78;;;;;;;;;;4838309;29;20057;-72
2022/05/24 06:20:34;;;;;;;7.18;4.93;;;;;;;;;;4837724;29;20049;-72
2022/05/24 06:23:03;;;;;;;11.75;5.90;;;;;;;;;;4838136;29;20058;-72
2022/05/24 06:25:34;;;;;;;13.95;6.35;;;;;;;;;;4838085;29;20057;-72
2022/05/24 06:28:04;;;;;;;;;;;;;;;;;;4838946;29;20060;-71
2022/05/24 06:30:34;;;;;;;8.85;5.28;;;;;;;;;;4837691;29;19931;-70
2022/05/24 06:33:04;;;;;;;8.40;6.00;;;;;;;;;;4822189;29;20042;-72
2022/05/24 06:35:35;;;;;;;9.90;5.68;;;;;;;;;;4838243;29;20419;-71
2022/05/24 06:38:05;;;;;;;15.77;6.60;;;;;;;;;;4837914;29;20049;-72
2022/05/24 06:40:36;;;;;;;7.15;5.55;;;;;;;;;;4838009;29;20503;-71
2022/05/24 06:43:07;;;;;;;8.95;6.30;;;;;;;;;;4836005;29;20054;-71
2022/05/24 06:45:37;;;;;;;12.88;6.32;;;;;;;;;;4837396;29;20058;-72
2022/05/24 06:48:11;;;;;;;8.18;6.30;;;;;;;;;;4837216;29;20054;-72
2022/05/24 06:50:42;;;;;;;7.60;5.32;;;;;;;;;;4837806;29;20037;-72
2022/05/24 06:53:13;;;;;;;8.53;6.13;;;;;;;;;;4837931;29;20053;-72
2022/05/24 06:55:44;;;;;;;8.75;5.18;;;;;;;;;;4837775;29;20061;-72
2022/05/24 06:58:14;;;;;;;10.07;5.67;;;;;;;;;;4837212;29;20061;-72
2022/05/24 07:03:35;;;;;;;13.65;6.10;;;;;;;;;;4836762;29;20053;-72
2022/05/24 07:06:05;;;;;;;7.78;5.75;;;;;;;;;;4821073;29;20057;-72
2022/05/24 07:08:35;;;;;;;7.40;6.13;;;;;;;;;;4836981;29;20073;-71
2022/05/24 07:11:06;;;;;;;8.18;5.55;;;;;;;;;;4837351;29;20065;-72
2022/05/24 07:13:35;;;;;;;9.32;5.93;;;;;;;;;;4837337;29;20090;-72
2022/05/24 07:16:06;;;;;;;10.70;6.13;;;;;;;;;;4837257;29;20054;-73
2022/05/24 07:18:38;;;;;;;8.70;6.18;;;;;;;;;;4837634;29;20383;-73
2022/05/24 07:21:09;;;;;;;22.42;6.75;;;;;;;;;;4835945;29;20061;-72
2022/05/24 07:23:39;;;;;;;7.95;6.32;;;;;;;;;;4836928;29;20106;-71
2022/05/24 07:26:19;;;;;;;8.90;5.97;;;;;;;;;;4836976;29;20050;-71
2022/05/24 07:29:09;;;;;;;11.02;6.20;;;;;;;;;;4837395;29;20050;-72
2022/05/24 07:31:38;;;;;;;8.45;6.22;;;;;;;;;;4820323;29;20061;-71
2022/05/24 07:34:11;;;;;;;10.63;5.88;;;;;;;;;;4837394;29;20050;-71
2022/05/24 07:36:41;;;;;;;13.18;5.88;;;;;;;;;;4836833;29;20070;-72
2022/05/24 07:39:12;;;;;;;12.07;6.38;;;;;;;;;;4836934;29;20056;-74
2022/05/24 07:47:38;;;;;;;13.10;6.80;;;;;;;;;;4836828;29;20046;-72
2022/05/24 07:50:09;;;;;;;8.07;5.82;;;;;;;;;;4836128;29;20058;-73
2022/05/24 07:52:39;;;;;;;9.70;6.30;;;;;;;;;;4836832;29;20056;-73
2022/05/24 07:55:09;;;;;;;9.77;5.72;;;;;;;;;;4836273;29;20074;-73
2022/05/24 07:57:39;;;;;;;7.95;6.10;;;;;;;;;;4820945;29;20057;-73
2022/05/24 08:00:09;;;;;;;9.75;5.35;;;;;;;;;;4818831;29;20058;-72
2022/05/24 08:02:39;;;;;;;8.35;6.05;;;;;;;;;;4801002;29;20458;-71
2022/05/24 08:05:10;;;;;;;8.00;5.53;;;;;;;;;;4818230;29;20069;-70
2022/05/24 08:07:40;;;;;;;;;;;;;;;;;;4817654;29;20518;-71
2022/05/24 08:10:10;;;;;;;9.23;5.35;;;;;;;;;;4818357;29;19936;-74
2022/05/24 08:12:45;;;;;;;10.75;6.13;;;;;;;;;;4802458;29;20088;-70
2022/05/24 08:15:16;;;;;;;10.00;6.03;;;;;;;;;;4817728;29;20065;-71
2022/05/24 08:17:45;;;;;;;12.10;5.97;;;;;;;;;;4817919;29;20059;-71
2022/05/24 08:20:15;;;;;;;11.68;6.47;;;;;;;;;;4818241;29;20510;-70
2022/05/24 08:22:45;;;;;;;8.32;5.60;;;;;;;;;;4818053;29;20058;-70
2022/05/24 08:25:15;;;;;;;9.75;5.78;;;;;;;;;;4817040;29;20511;-71
2022/05/24 08:27:46;;;;;;;9.60;5.75;;;;;;;;;;4817807;29;20058;-71
2022/05/24 08:30:17;;;;;;;8.50;6.10;;;;;;;;;;4818084;29;20419;-71
2022/05/24 08:32:48;;;;;;;10.70;5.88;;;;;;;;;;4818072;29;20069;-71
2022/05/24 08:35:20;;;;;;;12.85;6.45;;;;;;;;;;4818289;29;20547;-70
2022/05/24 08:37:49;;;;;;;;;;;;;;;;;;4818183;29;20058;-71
2022/05/24 08:40:22;;;;;;;16.73;6.97;;;;;;;;;;4817422;29;20504;-70
2022/05/24 08:43:36;;;;;;;11.07;6.80;;;;;;;;;;4817576;29;20415;-72
2022/05/24 08:49:15;;;;;;;14.20;6.30;;;;;;;;;;4801216;29;20062;-71
2022/05/24 08:51:51;;;;;;;7.95;6.10;;;;;;;;;;4801221;29;20059;-71
2022/05/24 08:54:45;;;;;;;10.93;6.30;;;;;;;;;;4817877;29;20058;-70
2022/05/24 08:57:37;;;;;;;14.98;6.72;;;;;;;;;;4809622;29;20050;-74
2022/05/24 09:00:13;;;;;;;14.38;7.53;;;;;;;;;;4835433;29;20045;-71
2022/05/24 09:02:46;;;;;;;13.63;6.65;;;;;;;;;;4835265;29;20061;-70
2022/05/24 09:05:18;;;;;;;11.73;6.40;;;;;;;;;;4834577;29;20049;-70
2022/05/24 09:08:12;;;;;;;8.00;6.07;;;;;;;;;;4818707;29;20054;-71
2022/05/24 09:10:50;;;;;;;16.98;6.60;;;;;;;;;;4835212;29;20061;-73
2022/05/24 09:13:47;;;;;;;10.85;6.53;;;;;;;;;;4836230;29;20058;-71
2022/05/24 09:16:18;;;;;;;12.23;6.22;;;;;;;;;;4835736;29;20054;-72
2022/05/24 09:18:56;;;;;;;9.53;6.27;;;;;;;;;;4837088;29;20064;-72
2022/05/24 09:21:29;;;;;;;10.10;5.97;;;;;;;;;;4839710;29;20057;-76
2022/05/24 09:23:59;;;;;;;11.10;6.25;;;;;;;;;;4838681;29;20050;-73
2022/05/24 09:26:34;;;;;;;10.68;6.32;;;;;;;;;;4839044;29;20045;-73
2022/05/24 09:29:14;;;;;;;12.25;6.47;;;;;;;;;;4839579;29;20418;-73
2022/05/24 09:31:48;;;;;;;10.45;6.60;;;;;;;;;;4838667;29;20042;-74
2022/05/24 09:34:18;;;;;;;9.20;5.85;;;;;;;;;;4839213;29;20046;-72
2022/05/24 09:37:00;;;;;;;12.02;6.32;;;;;;;;;;4839679;29;20053;-72
2022/05/24 09:39:30;;;;;;;14.50;6.63;;;;;;;;;;4822225;29;20054;-73
2022/05/24 09:42:21;;;;;;;9.52;6.18;;;;;;;;;;4822933;29;20046;-72
2022/05/24 09:44:58;;;;;;;;;;;;;;;;;;4839147;29;20058;-70
2022/05/24 09:47:50;;;;;;;10.38;5.78;;;;;;;;;;4839053;29;19936;-72
2022/05/24 09:50:36;;;;;;;18.15;6.65;;;;;;;;;;4839032;29;20053;-72
2022/05/24 09:53:20;;;;;;;7.18;5.03;;;;;;;;;;4821230;29;20057;-78
2022/05/24 09:56:05;;;;;;;8.95;5.95;;;;;;;;;;4838697;29;20656;-76
2022/05/24 09:58:37;;;;;;;14.38;6.47;;;;;;;;;;4838591;29;20068;-72
2022/05/24 10:01:08;;;;;;;11.75;6.35;;;;;;;;;;4839167;29;20533;-74
2022/05/24 10:03:49;;;;;;;11.35;6.93;;;;;;;;;;4821215;29;20082;-72
2022/05/24 10:06:24;;;;;;;13.00;7.05;;;;;;;;;;4837938;29;20057;-71
2022/05/24 10:09:00;;;;;;;14.70;7.07;;;;;;;;;;4838695;29;20061;-76
2022/05/24 10:11:57;;;;;;;8.15;6.63;;;;;;;;;;4838739;29;20507;-73
2022/05/24 10:14:52;;;;;;;17.23;6.85;;;;;;;;;;4838288;29;20049;-72
2022/05/24 10:17:42;;;;;;;11.05;7.78;;;;;;;;;;4838295;29;20046;-72
2022/05/24 10:20:51;;;;;;;12.73;6.53;;;;;;;;;;4837702;29;20513;-72
2022/05/24 10:23:33;;;;;;;12.65;6.68;;;;;;;;;;4838359;29;20054;-73
2022/05/24 10:26:24;;;;;;;16.50;7.53;;;;;;;;;;4839063;29;20640;-73
2022/05/24 10:29:12;;;;;;;;;;;;;;;;;;4838546;29;20058;-73
2022/05/24 10:32:07;;;;;;;9.38;5.65;;;;;;;;;;4837988;29;19935;-73
2022/05/24 10:40:51;;;;;;;15.02;7.05;;;;;;;;;;4833440;29;20061;-77
2022/05/24 10:43:45;;;;;;;19.35;6.97;;;;;;;;;;4833382;29;20060;-72
2022/05/24 10:46:30;;;;;;;11.25;6.88;;;;;;;;;;4836306;29;20046;-75
2022/05/24 10:49:07;;;;;;;20.45;7.22;;;;;;;;;;4837259;29;20050;-73
2022/05/24 10:51:47;;;;;;;9.98;6.78;;;;;;;;;;4837194;29;20053;-73
2022/05/24 10:54:40;;;;;;;33.60;9.30;;;;;;;;;;4837603;29;20057;-77
2022/05/24 10:57:19;;;;;;;15.00;6.07;;;;;;;;;;4836930;29;20297;-79
2022/05/24 10:59:59;;;;;;;19.88;6.28;;;;;;;;;;4816951;29;20070;-73
2022/05/24 11:02:29;;;;;;;24.63;7.75;;;;;;;;;;4819369;29;20058;-72
2022/05/24 11:05:07;;;;;;;12.75;6.00;;;;;;;;;;4818982;29;20066;-73
2022/05/24 11:07:38;;;;;;;7.25;5.03;;;;;;;;;;4819209;29;20057;-73
2022/05/24 11:10:18;;;;;;;13.68;5.30;;;;;;;;;;4818999;29;20094;-72
2022/05/24 11:12:51;;;;;;;12.27;5.40;;;;;;;;;;4819403;29;20046;-72
2022/05/24 11:15:33;;;;;;;8.70;5.05;;;;;;;;;;4819738;29;20050;-72
2022/05/24 11:18:15;;;;;;;;;;;;;;;;;;4819485;29;20066;-73
2022/05/24 11:21:13;;;;;;;25.42;6.50;;;;;;;;;;4818539;29;19932;-73
2022/05/24 11:23:57;;;;;;;14.10;6.13;;;;;;;;;;4795385;29;20091;-74
2022/05/24 11:26:39;;;;;;;10.98;5.13;;;;;;;;;;4818140;29;20418;-74
2022/05/24 11:29:20;;;;;;;;;;;;;;;;;;4818792;29;20384;-72
2022/05/24 11:32:31;;;;;;;15.02;5.57;;;;;;;;;;4817109;29;19936;-73
2022/05/24 11:35:10;;;;;;;17.98;5.20;;;;;;;;;;4812700;29;20066;-74
2022/05/24 11:37:44;;;;;;;12.75;5.38;;;;;;;;;;4818726;29;20054;-73
2022/05/24 11:40:40;;;;;;;23.38;5.97;;;;;;;;;;4816746;29;20071;-77
2022/05/24 11:43:30;;;;;;;7.90;4.90;;;;;;;;;;4818782;29;20059;-72
2022/05/24 11:46:01;;;;;;;16.67;5.65;;;;;;;;;;4817532;29;20045;-73
2022/05/24 11:48:48;;;;;;;20.67;8.70;;;;;;;;;;4818634;29;20065;-77
2022/05/24 11:51:39;;;;;;;29.98;6.50;;;;;;;;;;4820274;29;20109;-73
2022/05/24 11:54:18;;;;;;;14.77;5.07;;;;;;;;;;4819681;29;20569;-75
2022/05/24 11:57:01;;;;;;;48.10;7.70;;;;;;;;;;4818887;29;20058;-73
2022/05/24 11:59:51;;;;;;;16.50;5.25;;;;;;;;;;4831815;29;20545;-73
2022/05/24 12:02:26;;;;;;;8.45;4.70;;;;;;;;;;4833313;29;20060;-73
2022/05/24 12:08:31;;;;;;;10.88;4.10;;;;;;;;;;4836249;29;20077;-73
2022/05/24 12:11:07;;;;;;;11.52;4.45;;;;;;;;;;4836649;29;20686;-73
2022/05/24 12:13:57;;;;;;;13.75;4.50;;;;;;;;;;4836230;29;20050;-75
2022/05/24 12:16:33;;;;;;;8.55;4.15;;;;;;;;;;4835897;29;20049;-73
2022/05/24 12:19:11;;;;;;;9.25;4.60;;;;;;;;;;4836885;29;20046;-71
2022/05/24 12:22:00;;;;;;;10.32;4.72;;;;;;;;;;4836302;29;20054;-71
2022/05/24 12:24:37;;;;;;;43.60;6.97;;;;;;;;;;4836528;29;20054;-73
2022/05/24 12:27:10;;;;;;;11.23;4.22;;;;;;;;;;4836105;29;20061;-74
2022/05/24 12:29:48;;;;;;;6.85;4.15;;;;;;;;;;4835519;29;20065;-73
2022/05/24 12:32:22;;;;;;;8.77;4.45;;;;;;;;;;4835765;29;20046;-71
2022/05/24 12:34:53;;;;;;;7.50;3.80;;;;;;;;;;4836377;29;20065;-71
2022/05/24 12:37:31;;;;;;;17.30;4.50;;;;;;;;;;4836295;29;20830;-71
2022/05/24 12:40:10;;;;;;;20.73;4.53;;;;;;;;;;4836127;29;20504;-73
2022/05/24 12:42:56;;;;;;;13.13;4.13;;;;;;;;;;4836383;29;20061;-73
2022/05/24 12:45:33;;;;;;;6.63;4.00;;;;;;;;;;4835838;29;20069;-73
2022/05/24 12:48:07;;;;;;;10.20;3.55;;;;;;;;;;4835630;29;20050;-72
2022/05/24 12:50:40;;;;;;;14.00;3.53;;;;;;;;;;4836261;29;20061;-76
2022/05/24 12:53:13;;;;;;;15.23;4.60;;;;;;;;;;4835575;29;20050;-74
2022/05/24 12:55:56;;;;;;;12.85;5.35;;;;;;;;;;4835758;29;20077;-72
2022/05/24 12:58:43;;;;;;;8.32;4.07;;;;;;;;;;4835416;29;20054;-71
2022/05/24 13:01:27;;;;;;;10.20;3.92;;;;;;;;;;4835784;29;20056;-72
2022/05/24 13:04:12;;;;;;;18.27;4.13;;;;;;;;;;4835578;29;20050;-72
2022/05/24 13:06:54;;;;;;;6.90;3.60;;;;;;;;;;4818332;29;20659;-73
2022/05/24 13:09:29;;;;;;;20.65;4.53;;;;;;;;;;4835518;29;20052;-74
2022/05/24 13:12:07;;;;;;;9.77;3.75;;;;;;;;;;4835372;29;20539;-72
2022/05/24 13:14:46;;;;;;;14.02;3.80;;;;;;;;;;4835460;29;20406;-73
2022/05/24 13:17:21;;;;;;;20.23;3.57;;;;;;;;;;4835058;29;20057;-77
2022/05/24 13:20:03;;;;;;;9.85;3.78;;;;;;;;;;4835137;29;20076;-72
2022/05/24 13:22:55;;;;;;;15.18;4.55;;;;;;;;;;4835547;29;20630;-72
2022/05/24 13:25:48;;;;;;;10.15;3.60;;;;;;;;;;4818132;29;20068;-72
2022/05/24 13:28:53;;;;;;;14.00;4.47;;;;;;;;;;4836192;29;20054;-74
2022/05/24 13:34:21;;;;;;;13.90;3.60;;;;;;;;;;4835535;29;20494;-72
2022/05/24 13:37:01;;;;;;;19.27;4.20;;;;;;;;;;4833563;29;20050;-72
2022/05/24 13:39:43;;;;;;;15.10;4.47;;;;;;;;;;4834976;29;20049;-73
2022/05/24 13:42:27;;;;;;;9.68;3.20;;;;;;;;;;4834879;29;20053;-72
2022/05/24 13:45:22;;;;;;;12.70;3.80;;;;;;;;;;4834286;29;20510;-74
2022/05/24 13:47:58;;;;;;;6.28;3.50;;;;;;;;;;4834951;29;20054;-76
2022/05/24 13:50:40;;;;;;;11.95;4.10;;;;;;;;;;4834990;29;20049;-72
2022/05/24 13:53:37;;;;;;;11.35;4.03;;;;;;;;;;4834804;29;20535;-80
2022/05/24 13:56:20;;;;;;;13.73;4.93;;;;;;;;;;4835494;29;20539;-72
2022/05/24 13:59:23;;;;;;;11.55;3.63;;;;;;;;;;4834446;29;20058;-73
2022/05/24 14:02:08;;;;;;;12.18;3.80;;;;;;;;;;4796770;29;20058;-72
2022/05/24 14:04:41;;;;;;;15.80;3.90;;;;;;;;;;4834495;29;20549;-72
2022/05/24 14:07:12;;;;;;;7.60;3.55;;;;;;;;;;4838180;29;20046;-73
2022/05/24 14:09:43;;;;;;;;;;;;;;;;;;4838311;29;20061;-73
2022/05/24 14:12:13;;;;;;;11.98;4.45;;;;;;;;;;4838741;29;20301;-73
2022/05/24 14:14:46;;;;;;;9.13;3.67;;;;;;;;;;4839472;29;20073;-82
2022/05/24 14:17:17;;;;;;;8.82;3.58;;;;;;;;;;4837644;29;20080;-72
2022/05/24 14:19:48;;;;;;;11.20;4.25;;;;;;;;;;4820667;29;20842;-72
2022/05/24 14:22:19;;;;;;;6.47;3.80;;;;;;;;;;4838081;29;20049;-74
2022/05/24 14:24:50;;;;;;;12.77;3.65;;;;;;;;;;4837506;29;20050;-73
2022/05/24 14:27:21;;;;;;;10.90;3.97;;;;;;;;;;4838085;29;20072;-73
2022/05/24 14:29:51;;;;;;;14.30;4.37;;;;;;;;;;4838258;29;20523;-73
2022/05/24 14:32:20;;;;;;;15.20;4.47;;;;;;;;;;4835859;29;20426;-73
2022/05/24 14:34:50;;;;;;;16.23;5.20;;;;;;;;;;4838425;29;20050;-76
2022/05/24 14:37:20;;;;;;;8.48;3.75;;;;;;;;;;4838289;29;20046;-73
2022/05/24 14:39:50;;;;;;;9.35;3.28;;;;;;;;;;4837550;29;20054;-73
2022/05/24 14:42:20;;;;;;;8.80;3.25;;;;;;;;;;4839209;29;20056;-76
2022/05/24 14:44:50;;;;;;;6.05;3.28;;;;;;;;;;4837694;29;20541;-73
2022/05/24 14:47:20;;;;;;;9.97;3.60;;;;;;;;;;4837689;29;20050;-72
2022/05/24 14:49:50;;;;;;;8.50;3.13;;;;;;;;;;4837531;29;20049;-72
2022/05/24 14:52:23;;;;;;;9.40;3.58;;;;;;;;;;4836976;29;20054;-72
2022/05/24 14:54:54;;;;;;;9.25;3.60;;;;;;;;;;4837404;29;20064;-72
2022/05/24 14:57:24;;;;;;;10.85;3.60;;;;;;;;;;4836808;29;20064;-72
2022/05/24 14:59:54;;;;;;;8.43;3.40;;;;;;;;;;4837710;29;20054;-72
2022/05/24 15:02:24;;;;;;;12.27;4.57;;;;;;;;;;4837107;29;20314;-72
2022/05/24 15:04:56;;;;;;;7.80;3.17;;;;;;;;;;4821382;29;20833;-72
2022/05/24 15:15:51;;;;;;;6.40;3.53;;;;;;;;;;4836254;29;20413;-74
2022/05/24 15:18:21;;;;;;;9.95;3.85;;;;;;;;;;4837358;29;20069;-71
2022/05/24 15:20:52;;;;;;;15.45;4.18;;;;;;;;;;4837209;29;20050;-80
2022/05/24 15:23:25;;;;;;;;;;;;;;;;;;4837909;29;20057;-72
2022/05/24 15:26:01;;;;;;;6.80;4.03;;;;;;;;;;4837191;29;19928;-73
2022/05/24 15:28:34;;;;;;;8.13;4.05;;;;;;;;;;4836671;29;20049;-75
2022/05/24 15:31:04;;;;;;;10.75;4.22;;;;;;;;;;4837188;29;20046;-73
2022/05/24 15:33:34;;;;;;;9.93;3.73;;;;;;;;;;4836876;29;20046;-78
2022/05/24 15:36:06;;;;;;;12.07;4.43;;;;;;;;;;4836964;29;20049;-72
2022/05/24 15:38:36;;;;;;;15.13;4.68;;;;;;;;;;4837309;29;20061;-71
2022/05/24 15:41:07;;;;;;;15.48;4.20;;;;;;;;;;4836955;29;20080;-72
2022/05/24 15:43:46;;;;;;;11.50;4.38;;;;;;;;;;4837302;29;20062;-72
2022/05/24 15:46:16;;;;;;;10.25;3.75;;;;;;;;;;4836872;29;20532;-71
2022/05/24 15:48:48;;;;;;;20.52;4.90;;;;;;;;;;4837782;29;20046;-72
2022/05/24 15:51:18;;;;;;;9.82;5.20;;;;;;;;;;4837153;29;20084;-71
2022/05/24 15:53:49;;;;;;;21.77;5.97;;;;;;;;;;4837103;29;20049;-72
2022/05/24 15:56:19;;;;;;;11.45;4.35;;;;;;;;;;4836532;29;20064;-74
2022/05/24 15:58:49;;;;;;;5.97;3.65;;;;;;;;;;4816685;29;20070;-71
2022/05/24 16:01:19;;;;;;;15.80;4.55;;;;;;;;;;4818678;29;20058;-71
2022/05/24 16:03:48;;;;;;;17.10;4.15;;;;;;;;;;4818858;29;20080;-71
2022/05/24 16:11:56;;;;;;;9.60;4.35;;;;;;;;;;4818460;29;20054;-76
2022/05/24 16:14:36;;;;;;;8.82;4.68;;;;;;;;;;4817915;29;20061;-71
2022/05/24 16:17:11;;;;;;;8.80;5.03;;;;;;;;;;4817622;29;20058;-72
2022/05/24 16:19:44;;;;;;;9.43;4.82;;;;;;;;;;4818220;29;20050;-72
2022/05/24 16:22:17;;;;;;;14.00;5.13;;;;;;;;;;4818055;29;20054;-72
2022/05/24 16:24:47;;;;;;;11.82;5.22;;;;;;;;;;4818437;29;20046;-73
2022/05/24 16:27:17;;;;;;;8.53;4.37;;;;;;;;;;4817938;29;20050;-71
2022/05/24 16:29:47;;;;;;;12.65;5.90;;;;;;;;;;4818190;29;20302;-74